createdAt,value
2024-01-15T00:02:23.727Z,94658.38
2024-01-15T00:04:51.390Z,94664.19
2024-01-15T00:07:19.217Z,94659.53
2024-01-15T00:09:47.041Z,94635.22
2024-01-15T00:12:14.727Z,94622.38
2024-01-15T00:14:42.299Z,94625.88
2024-01-15T00:17:10.252Z,94613.50
2024-01-15T00:19:38.632Z,94615.13
2024-01-15T00:22:06.314Z,94629.69
2024-01-15T00:24:34.138Z,94617.97
2024-01-15T00:27:01.862Z,94618.09
2024-01-15T00:29:29.609Z,94616.97
2024-01-15T00:31:57.264Z,94606.66
2024-01-15T00:34:25.088Z,94595.50
2024-01-15T00:36:52.664Z,94607.50
2024-01-15T00:39:20.571Z,94622.72
2024-01-15T00:41:48.272Z,94621.81
2024-01-15T00:44:16.128Z,94634.34
2024-01-15T00:46:47.409Z,94630.63
2024-01-15T00:49:15.734Z,94625.44
2024-01-15T00:51:43.516Z,94626.19
2024-01-15T00:54:11.374Z,94612.75
2024-01-15T00:56:39.102Z,94617.72
2024-01-15T00:59:07.353Z,94602.41
2024-01-15T01:01:35.156Z,94612.44
2024-01-15T01:04:02.977Z,94607.34
2024-01-15T01:06:33.484Z,94604.72
2024-01-15T01:09:02.006Z,94605.44
2024-01-15T01:11:30.882Z,94616.16
2024-01-15T01:13:58.593Z,94622.84
2024-01-15T01:16:26.501Z,94615.28
2024-01-15T01:18:54.271Z,94627.59
2024-01-15T01:21:22.102Z,94623.63
2024-01-15T01:23:49.874Z,94632.75
2024-01-15T01:26:18.658Z,94635.25
2024-01-15T01:28:46.358Z,94630.38
2024-01-15T01:31:13.974Z,94633.00
2024-01-15T01:33:42.181Z,94623.31
2024-01-15T01:36:11.246Z,94630.88
2024-01-15T01:38:39.727Z,94638.56
2024-01-15T01:41:07.484Z,94628.19
2024-01-15T01:43:35.103Z,94627.28
2024-01-15T01:46:04.436Z,94623.78
2024-01-15T01:48:33.570Z,94611.13
2024-01-15T01:51:04.793Z,94622.88
2024-01-15T01:53:35.319Z,94622.75
2024-01-15T01:56:04.604Z,94603.22
2024-01-15T01:58:34.883Z,94622.53
2024-01-15T02:01:02.905Z,94616.44
2024-01-15T02:03:32.366Z,94621.19
2024-01-15T02:06:02.181Z,94623.78
2024-01-15T02:08:30.495Z,94626.84
2024-01-15T02:10:58.114Z,94604.47
2024-01-15T02:13:25.780Z,94612.13
2024-01-15T02:15:53.683Z,94625.94
2024-01-15T02:18:22.262Z,94625.25
2024-01-15T02:20:49.951Z,94611.13
2024-01-15T02:23:17.908Z,94634.50
2024-01-15T02:25:48.436Z,94629.31
2024-01-15T02:28:18.107Z,94632.91
2024-01-15T02:30:46.255Z,94637.22
2024-01-15T02:33:14.884Z,94643.16
2024-01-15T02:35:43.007Z,94654.22
2024-01-15T02:38:10.604Z,94651.78
2024-01-15T02:40:39.548Z,94653.56
2024-01-15T02:43:06.996Z,94667.44
2024-01-15T02:45:34.590Z,94665.38
2024-01-15T02:48:02.411Z,94662.50
2024-01-15T02:50:30.195Z,94670.84
2024-01-15T02:52:57.928Z,94684.81
2024-01-15T02:55:25.616Z,94703.38
2024-01-15T02:57:53.426Z,94722.78
2024-01-15T03:00:23.396Z,94727.53
2024-01-15T03:02:52.437Z,94739.84
2024-01-15T03:05:21.395Z,94714.03
2024-01-15T03:07:49.233Z,94712.75
2024-01-15T03:10:17.131Z,94721.09
2024-01-15T03:12:44.827Z,94732.06
2024-01-15T03:15:12.830Z,94689.00
2024-01-15T03:17:42.307Z,94712.53
2024-01-15T03:20:10.619Z,94724.78
2024-01-15T03:22:38.332Z,94725.94
2024-01-15T03:25:07.509Z,94730.69
2024-01-15T03:27:35.308Z,94726.75
2024-01-15T03:30:03.919Z,94708.50
2024-01-15T03:32:32.564Z,94724.69
2024-01-15T03:35:00.647Z,94716.44
2024-01-15T03:37:28.334Z,94742.53
2024-01-15T03:39:56.292Z,94732.97
2024-01-15T03:42:24.085Z,94732.66
2024-01-15T03:44:51.731Z,94728.19
2024-01-15T03:47:19.352Z,94721.84
2024-01-15T03:49:47.112Z,94709.97
2024-01-15T03:52:14.906Z,94704.72
2024-01-15T03:54:42.879Z,94719.81
2024-01-15T03:57:10.556Z,94709.00
2024-01-15T03:59:38.131Z,94713.28
2024-01-15T04:02:05.874Z,94746.53
2024-01-15T04:04:33.523Z,94703.94
2024-01-15T04:07:01.254Z,94710.78
2024-01-15T04:09:28.979Z,94724.44
2024-01-15T04:11:56.603Z,94714.94
2024-01-15T04:14:24.159Z,94714.75
2024-01-15T04:16:51.781Z,94720.13
2024-01-15T04:19:19.425Z,94695.97
2024-01-15T04:21:47.252Z,94713.31
2024-01-15T04:24:14.985Z,94708.72
2024-01-15T04:26:42.556Z,94689.16
2024-01-15T04:29:10.320Z,94698.50
2024-01-15T04:31:38.068Z,94702.47
2024-01-15T04:34:05.795Z,94699.00
2024-01-15T04:36:33.608Z,94690.09
2024-01-15T04:39:01.164Z,94692.84
2024-01-15T04:41:28.845Z,94699.44
2024-01-15T04:43:56.563Z,94705.81
2024-01-15T04:46:24.367Z,94703.13
2024-01-15T04:48:52.171Z,94708.00
2024-01-15T04:51:19.916Z,94718.03
2024-01-15T04:53:47.549Z,94717.03
2024-01-15T04:56:15.238Z,94718.97
2024-01-15T04:58:42.822Z,94723.91
2024-01-15T05:01:11.523Z,94719.44
2024-01-15T05:03:39.397Z,94721.84
2024-01-15T05:06:07.470Z,94724.28
2024-01-15T05:08:35.126Z,94698.47
2024-01-15T05:11:02.823Z,94707.22
2024-01-15T05:13:30.519Z,94705.63
2024-01-15T05:15:58.182Z,94706.13
2024-01-15T05:18:25.907Z,94711.03
2024-01-15T05:20:53.976Z,94705.16
2024-01-15T05:23:21.793Z,94712.75
2024-01-15T05:25:49.472Z,94691.00
2024-01-15T05:28:17.297Z,94705.00
2024-01-15T05:30:45.145Z,94694.97
2024-01-15T05:33:12.986Z,94715.19
2024-01-15T05:35:40.609Z,94715.66
2024-01-15T05:38:08.394Z,94711.97
2024-01-15T05:40:36.121Z,94717.09
2024-01-15T05:43:03.799Z,94714.41
2024-01-15T05:45:32.131Z,94706.03
2024-01-15T05:47:59.919Z,94705.88
2024-01-15T05:50:27.583Z,94711.38
2024-01-15T05:52:55.261Z,94700.31
2024-01-15T05:55:22.791Z,94705.72
2024-01-15T05:57:50.552Z,94709.22
2024-01-15T06:00:19.543Z,94704.41
2024-01-15T06:02:48.037Z,94704.25
2024-01-15T06:05:19.005Z,94702.19
2024-01-15T06:07:46.766Z,94702.19
2024-01-15T06:10:14.390Z,94716.19
2024-01-15T06:12:42.087Z,94703.75
2024-01-15T06:15:10.209Z,94717.66
2024-01-15T06:17:38.991Z,94709.06
2024-01-15T06:20:07.329Z,94708.59
2024-01-15T06:22:35.118Z,94708.91
2024-01-15T06:25:02.793Z,94696.88
2024-01-15T06:27:30.601Z,94703.19
2024-01-15T06:29:58.222Z,94704.78
2024-01-15T06:32:25.929Z,94676.19
2024-01-15T06:34:53.806Z,94672.38
2024-01-15T06:37:21.576Z,94683.78
2024-01-15T06:39:49.332Z,94677.13
2024-01-15T06:42:17.369Z,94679.63
2024-01-15T06:44:45.036Z,94671.59
2024-01-15T06:47:12.840Z,94671.72
2024-01-15T06:49:40.522Z,94667.91
2024-01-15T06:52:08.314Z,94674.69
2024-01-15T06:54:35.988Z,94675.84
2024-01-15T06:57:03.770Z,94685.34
2024-01-15T06:59:31.487Z,94682.66
2024-01-15T07:02:00.563Z,94685.03
2024-01-15T07:04:28.248Z,94690.44
2024-01-15T07:06:55.903Z,94681.88
2024-01-15T07:09:24.107Z,94674.69
2024-01-15T07:11:51.894Z,94691.84
2024-01-15T07:14:19.559Z,94688.34
2024-01-15T07:16:48.664Z,94688.34
2024-01-15T07:19:16.771Z,94683.88
2024-01-15T07:21:44.706Z,94683.56
2024-01-15T07:24:12.689Z,94680.06
2024-01-15T07:26:40.836Z,94680.53
2024-01-15T07:29:09.676Z,94697.84
2024-01-15T07:31:37.840Z,94694.97
2024-01-15T07:34:05.743Z,94688.13
2024-01-15T07:36:33.484Z,94694.59
2024-01-15T07:39:01.171Z,94699.34
2024-01-15T07:41:28.910Z,94706.69
2024-01-15T07:43:56.574Z,94695.66
2024-01-15T07:46:24.240Z,94706.03
2024-01-15T07:48:57.523Z,94706.69
2024-01-15T07:51:25.936Z,94707.13
2024-01-15T07:53:56.560Z,94699.88
2024-01-15T07:56:24.279Z,94704.97
2024-01-15T07:58:51.944Z,94711.47
2024-01-15T08:01:19.773Z,94712.13
2024-01-15T08:03:47.677Z,94695.47
2024-01-15T08:06:15.634Z,94703.13
2024-01-15T08:08:43.445Z,94713.16
2024-01-15T08:11:11.039Z,94708.06
2024-01-15T08:13:38.713Z,94720.13
2024-01-15T08:16:06.790Z,94722.84
2024-01-15T08:18:34.758Z,94725.13
2024-01-15T08:21:02.882Z,94720.41
2024-01-15T08:23:32.671Z,94727.38
2024-01-15T08:26:00.361Z,94729.91
2024-01-15T08:28:28.268Z,94725.94
2024-01-15T08:30:55.964Z,94719.97
2024-01-15T08:33:23.870Z,94723.13
2024-01-15T08:35:51.745Z,94713.78
2024-01-15T08:38:20.529Z,94728.19
2024-01-15T08:40:48.488Z,94727.75
2024-01-15T08:43:16.153Z,94724.72
2024-01-15T08:45:44.075Z,94718.81
2024-01-15T08:48:11.929Z,94713.66
2024-01-15T08:50:39.725Z,94716.53
2024-01-15T08:53:07.366Z,94714.56
2024-01-15T08:55:35.090Z,94706.03
2024-01-15T08:58:02.905Z,94716.66
2024-01-15T09:00:32.612Z,94717.16
2024-01-15T09:03:00.214Z,94713.91
2024-01-15T09:05:28.029Z,94711.41
2024-01-15T09:07:56.358Z,94709.81
2024-01-15T09:10:24.214Z,94716.59
2024-01-15T09:12:54.596Z,94706.88
2024-01-15T09:15:22.335Z,94717.66
2024-01-15T09:17:50.110Z,94704.09
2024-01-15T09:20:17.877Z,94706.03
2024-01-15T09:22:46.658Z,94712.63
2024-01-15T09:25:14.404Z,94725.19
2024-01-15T09:27:42.139Z,94709.16
2024-01-15T09:30:10.350Z,94707.94
2024-01-15T09:32:38.258Z,94721.53
2024-01-15T09:35:06.744Z,94722.47
2024-01-15T09:37:42.406Z,94724.00
2024-01-15T09:40:18.311Z,94712.19
2024-01-15T09:42:47.701Z,94716.53
2024-01-15T09:45:16.069Z,94718.97
2024-01-15T09:47:45.989Z,94726.66
2024-01-15T09:50:16.444Z,94720.59
2024-01-15T09:52:54.124Z,94719.22
2024-01-15T09:55:22.414Z,94721.63
2024-01-15T09:57:51.736Z,94709.22
2024-01-15T10:00:22.222Z,94711.38
2024-01-15T10:02:50.864Z,94712.41
2024-01-15T10:05:18.547Z,94706.72
2024-01-15T10:07:48.727Z,94704.50
2024-01-15T10:10:16.747Z,94703.41
2024-01-15T10:12:45.482Z,94685.19
2024-01-15T10:15:13.845Z,94689.50
2024-01-15T10:17:41.947Z,94695.56
2024-01-15T10:20:12.003Z,94693.19
2024-01-15T10:22:44.629Z,94674.34
2024-01-15T10:25:13.302Z,94671.16
2024-01-15T10:27:45.443Z,94676.19
2024-01-15T10:30:15.537Z,94661.53
2024-01-15T10:32:43.514Z,94671.41
2024-01-15T10:35:11.726Z,94667.56
2024-01-15T10:37:39.411Z,94663.38
2024-01-15T10:40:07.587Z,94668.28
2024-01-15T10:42:35.517Z,94657.41
2024-01-15T10:45:03.190Z,94677.47
2024-01-15T10:47:32.079Z,94659.59
2024-01-15T10:49:59.965Z,94667.06
2024-01-15T10:52:30.635Z,94656.66
2024-01-15T10:54:59.519Z,94655.34
2024-01-15T10:57:29.178Z,94658.09
2024-01-15T10:59:57.094Z,94652.09
2024-01-15T11:02:26.635Z,94660.09
2024-01-15T11:04:54.452Z,94660.75
2024-01-15T11:07:28.000Z,94655.47
2024-01-15T11:10:05.496Z,94655.47
2024-01-15T11:12:33.696Z,94658.91
2024-01-15T11:15:11.416Z,94654.22
2024-01-15T11:18:02.476Z,94662.41
2024-01-15T11:20:31.360Z,94642.44
2024-01-15T11:23:00.500Z,94647.84
2024-01-15T11:25:38.502Z,94651.50
2024-01-15T11:28:06.390Z,94633.19
2024-01-15T11:30:37.610Z,94645.31
2024-01-15T11:33:08.559Z,94649.75
2024-01-15T11:35:52.200Z,94631.75
2024-01-15T11:38:38.055Z,94628.72
2024-01-15T11:41:16.593Z,94634.84
2024-01-15T11:43:44.173Z,94627.50
2024-01-15T11:46:16.300Z,94613.28
2024-01-15T11:48:48.583Z,94613.25
2024-01-15T11:51:19.897Z,94596.53
2024-01-15T11:53:50.283Z,94605.63
2024-01-15T11:56:19.248Z,94607.75
2024-01-15T11:58:46.913Z,94600.34
2024-01-15T12:01:14.936Z,94598.22
2024-01-15T12:03:42.549Z,94611.84
2024-01-15T12:06:11.518Z,94606.75
2024-01-15T12:08:39.280Z,94607.09
2024-01-15T12:11:15.307Z,94609.31
2024-01-15T12:13:42.974Z,94605.16
2024-01-15T12:16:11.416Z,94593.56
2024-01-15T12:18:39.262Z,94588.56
2024-01-15T12:21:06.905Z,94589.13
2024-01-15T12:23:35.510Z,94587.88
2024-01-15T12:26:03.319Z,94580.59
2024-01-15T12:28:31.613Z,94588.03
2024-01-15T12:31:01.722Z,94593.00
2024-01-15T12:33:29.881Z,94584.28
2024-01-15T12:35:57.771Z,94585.50
2024-01-15T12:38:25.388Z,94581.56
2024-01-15T12:40:53.226Z,94589.22
2024-01-15T12:43:21.250Z,94587.16
2024-01-15T12:45:49.250Z,94592.78
2024-01-15T12:48:19.367Z,94595.47
2024-01-15T12:50:49.153Z,94598.19
2024-01-15T12:53:17.458Z,94594.56
2024-01-15T12:55:45.132Z,94598.69
2024-01-15T12:58:12.871Z,94593.19
2024-01-15T13:00:40.925Z,94583.41
2024-01-15T13:03:08.840Z,94590.16
2024-01-15T13:05:37.848Z,94605.84
2024-01-15T13:08:06.159Z,94591.38
2024-01-15T13:10:33.815Z,94600.84
2024-01-15T13:13:01.459Z,94601.41
2024-01-15T13:15:29.215Z,94603.97
2024-01-15T13:17:57.442Z,94606.41
2024-01-15T13:20:24.994Z,94606.50
2024-01-15T13:22:52.694Z,94611.31
2024-01-15T13:25:21.770Z,94611.38
2024-01-15T13:27:49.162Z,94600.00
2024-01-15T13:30:17.151Z,94597.22
2024-01-15T13:32:44.893Z,94587.81
2024-01-15T13:35:14.950Z,94580.50
2024-01-15T13:37:42.903Z,94586.88
2024-01-15T13:40:11.063Z,94582.72
2024-01-15T13:42:39.616Z,94580.66
2024-01-15T13:45:09.046Z,94562.50
2024-01-15T13:47:37.074Z,94569.94
2024-01-15T13:50:05.141Z,94568.16
2024-01-15T13:52:32.768Z,94572.19
2024-01-15T13:55:00.578Z,94565.00
2024-01-15T13:57:28.285Z,94561.88
2024-01-15T13:59:56.312Z,94554.09
2024-01-15T14:02:25.175Z,94547.88
2024-01-15T14:04:54.466Z,94549.13
2024-01-15T14:07:22.362Z,94555.16
2024-01-15T14:09:50.290Z,94544.13
2024-01-15T14:12:18.011Z,94535.75
2024-01-15T14:14:45.779Z,94527.91
2024-01-15T14:17:13.267Z,94530.06
2024-01-15T14:19:41.007Z,94514.91
2024-01-15T14:22:09.039Z,94523.00
2024-01-15T14:24:36.731Z,94549.97
2024-01-15T14:27:06.503Z,94551.91
2024-01-15T14:29:35.394Z,94542.19
2024-01-15T14:32:03.432Z,94543.91
2024-01-15T14:34:31.245Z,94558.13
2024-01-15T14:36:59.078Z,94568.97
2024-01-15T14:39:29.554Z,94568.41
2024-01-15T14:41:58.118Z,94577.91
2024-01-15T14:44:25.651Z,94573.03
2024-01-15T14:46:53.214Z,94571.69
2024-01-15T14:49:21.159Z,94579.75
2024-01-15T14:51:50.487Z,94581.00
2024-01-15T14:54:18.311Z,94582.94
2024-01-15T14:56:45.888Z,94584.25
2024-01-15T14:59:13.625Z,94570.94
2024-01-15T15:01:43.266Z,94562.22
2024-01-15T15:04:11.957Z,94560.66
2024-01-15T15:06:39.761Z,94572.47
2024-01-15T15:09:11.234Z,94580.91
2024-01-15T15:11:39.191Z,94594.09
2024-01-15T15:14:06.928Z,94607.34
2024-01-15T15:16:34.713Z,94600.53
2024-01-15T15:19:02.615Z,94598.09
2024-01-15T15:21:30.933Z,94587.03
2024-01-15T15:23:58.576Z,94601.16
2024-01-15T15:26:26.256Z,94606.81
2024-01-15T15:28:53.955Z,94600.63
2024-01-15T15:31:21.563Z,94588.50
2024-01-15T15:33:49.386Z,94600.09
2024-01-15T15:36:17.718Z,94603.50
2024-01-15T15:38:45.344Z,94597.69
2024-01-15T15:41:13.088Z,94607.75
2024-01-15T15:43:40.990Z,94602.19
2024-01-15T15:46:09.281Z,94589.41
2024-01-15T15:48:37.253Z,94581.69
2024-01-15T15:51:05.294Z,94573.50
2024-01-15T15:53:33.081Z,94570.16
2024-01-15T15:56:00.667Z,94575.56
2024-01-15T15:58:28.412Z,94579.81
2024-01-15T16:00:56.103Z,94581.88
2024-01-15T16:03:23.977Z,94574.88
2024-01-15T16:05:53.565Z,94585.69
2024-01-15T16:08:21.963Z,94583.38
2024-01-15T16:10:51.992Z,94591.25
2024-01-15T16:13:20.403Z,94601.03
2024-01-15T16:15:48.510Z,94587.69
2024-01-15T16:23:20.006Z,94598.97
2024-01-15T16:23:34.754Z,94573.97
2024-01-15T16:24:12.298Z,94594.88
2024-01-15T16:26:43.007Z,94593.63
2024-01-15T16:29:10.985Z,94596.66
2024-01-15T16:31:41.950Z,94609.88
2024-01-15T16:34:11.765Z,94623.13
2024-01-15T16:36:40.346Z,94629.19
2024-01-15T16:39:08.041Z,94635.47
2024-01-15T16:41:36.114Z,94636.34
2024-01-15T16:44:03.893Z,94646.22
2024-01-15T16:46:31.792Z,94642.13
2024-01-15T16:49:01.864Z,94636.88
2024-01-15T16:51:29.642Z,94638.94
2024-01-15T16:53:57.328Z,94640.72
2024-01-15T16:56:24.953Z,94631.22
2024-01-15T16:58:53.940Z,94640.25
2024-01-15T17:01:22.461Z,94639.47
2024-01-15T17:03:50.615Z,94632.31
2024-01-15T17:06:18.250Z,94628.81
2024-01-15T17:08:45.910Z,94635.13
2024-01-15T17:11:13.519Z,94644.34
2024-01-15T17:13:41.158Z,94639.88
2024-01-15T17:16:09.660Z,94650.97
2024-01-15T17:18:37.432Z,94638.41
2024-01-15T17:21:06.179Z,94641.63
2024-01-15T17:23:33.952Z,94634.75
2024-01-15T17:26:01.820Z,94636.47
2024-01-15T17:28:29.444Z,94597.97
2024-01-15T17:30:57.125Z,94626.69
2024-01-15T17:33:24.787Z,94626.63
2024-01-15T17:35:53.811Z,94641.28
2024-01-15T17:38:21.550Z,94636.84
2024-01-15T17:40:49.704Z,94633.16
2024-01-15T17:43:17.727Z,94653.38
2024-01-15T17:45:45.408Z,94639.66
2024-01-15T17:48:13.763Z,94649.81
2024-01-15T17:50:41.633Z,94645.47
2024-01-15T17:53:10.438Z,94657.53
2024-01-15T17:55:38.485Z,94657.25
2024-01-15T17:58:07.160Z,94668.63
2024-01-15T18:00:35.493Z,94668.81
2024-01-15T18:03:03.673Z,94687.13
2024-01-15T18:05:31.493Z,94690.50
2024-01-15T18:08:02.806Z,94695.44
2024-01-15T18:10:30.434Z,94703.22
2024-01-15T18:12:58.165Z,94717.72
2024-01-15T18:15:25.958Z,94705.72
2024-01-15T18:17:54.510Z,94700.97
2024-01-15T18:20:22.533Z,94706.84
2024-01-15T18:22:51.668Z,94723.25
2024-01-15T18:25:20.127Z,94727.88
2024-01-15T18:27:47.819Z,94704.00
2024-01-15T18:30:16.383Z,94734.28
2024-01-15T18:32:44.233Z,94729.63
2024-01-15T18:35:12.025Z,94744.47
2024-01-15T18:37:39.658Z,94747.63
2024-01-15T18:40:08.050Z,94744.47
2024-01-15T18:42:35.840Z,94744.63
2024-01-15T18:45:03.596Z,94751.81
2024-01-15T18:47:31.329Z,94736.25
2024-01-15T18:49:59.161Z,94737.72
2024-01-15T18:52:27.375Z,94735.69
2024-01-15T18:54:55.045Z,94731.09
2024-01-15T18:57:22.805Z,94757.31
2024-01-15T18:59:50.561Z,94750.66
2024-01-15T19:02:18.445Z,94756.53
2024-01-15T19:04:47.047Z,94760.53
2024-01-15T19:07:14.746Z,94766.91
2024-01-15T19:09:42.805Z,94791.56
2024-01-15T19:12:10.570Z,94780.59
2024-01-15T19:14:38.204Z,94799.16
2024-01-15T19:17:06.063Z,94795.22
2024-01-15T19:19:38.152Z,94798.25
2024-01-15T19:22:06.134Z,94804.75
2024-01-15T19:24:33.740Z,94793.03
2024-01-15T19:27:01.486Z,94819.69
2024-01-15T19:29:29.647Z,94816.22
2024-01-15T19:31:59.734Z,94814.47
2024-01-15T19:34:27.687Z,94829.38
2024-01-15T19:36:55.557Z,94826.69
2024-01-15T19:39:24.338Z,94841.91
2024-01-15T19:41:52.062Z,94851.06
2024-01-15T19:44:19.667Z,94851.69
2024-01-15T19:46:48.687Z,94852.69
2024-01-15T19:49:17.037Z,94872.72
2024-01-15T19:51:45.166Z,94870.50
2024-01-15T19:54:12.802Z,94890.34
2024-01-15T19:56:40.630Z,94896.38
2024-01-15T19:59:08.333Z,94895.25
2024-01-15T20:01:36.022Z,94894.47
2024-01-15T20:04:05.205Z,94916.38
2024-01-15T20:06:33.070Z,94922.56
2024-01-15T20:09:00.761Z,94923.22
2024-01-15T20:11:28.483Z,94930.38
2024-01-15T20:13:56.223Z,94914.31
2024-01-15T20:16:25.431Z,94935.25
2024-01-15T20:18:53.246Z,94923.03
2024-01-15T20:21:20.975Z,94934.13
2024-01-15T20:23:55.313Z,94948.06
2024-01-15T20:26:26.910Z,94934.72
2024-01-15T20:28:55.754Z,94936.47
2024-01-15T20:31:23.410Z,94945.69
2024-01-15T20:33:51.629Z,94945.31
2024-01-15T20:36:19.424Z,94945.06
2024-01-15T20:38:47.371Z,94946.50
2024-01-15T20:41:17.448Z,94936.16
2024-01-15T20:43:48.266Z,94948.13
2024-01-15T20:46:15.962Z,94944.25
2024-01-15T20:48:43.928Z,94959.31
2024-01-15T20:51:12.005Z,94967.59
2024-01-15T20:53:43.396Z,94958.59
2024-01-15T20:56:11.695Z,94966.22
2024-01-15T20:58:39.489Z,94984.81
2024-01-15T21:01:08.250Z,94980.22
2024-01-15T21:03:36.670Z,94981.16
2024-01-15T21:06:04.911Z,94967.03
2024-01-15T21:08:32.879Z,94977.53
2024-01-15T21:11:03.688Z,94996.09
2024-01-15T21:13:31.879Z,94993.91
2024-01-15T21:15:59.537Z,94993.41
2024-01-15T21:18:27.259Z,94986.25
2024-01-15T21:20:56.446Z,94991.16
2024-01-15T21:23:24.343Z,95001.00
2024-01-15T21:25:52.259Z,94998.31
2024-01-15T21:28:20.239Z,95020.50
2024-01-15T21:30:48.230Z,95014.50
2024-01-15T21:33:16.066Z,95017.50
2024-01-15T21:35:43.901Z,95023.34
2024-01-15T21:38:11.675Z,95022.28
2024-01-15T21:40:39.417Z,95040.03
2024-01-15T21:43:07.136Z,95056.56
2024-01-15T21:45:34.744Z,95047.38
2024-01-15T21:48:02.997Z,95060.19
2024-01-15T21:50:30.648Z,95060.19
2024-01-15T21:52:58.373Z,95059.88
2024-01-15T21:55:25.971Z,95059.88
2024-01-15T21:57:53.817Z,95077.44
2024-01-15T22:00:22.655Z,95068.53
2024-01-15T22:02:51.569Z,95073.59
2024-01-15T22:05:19.711Z,95079.91
2024-01-15T22:07:47.405Z,95065.91
2024-01-15T22:10:15.099Z,95083.03
2024-01-15T22:12:42.637Z,95097.09
2024-01-15T22:15:10.611Z,95101.03
2024-01-15T22:17:38.290Z,95101.22
2024-01-15T22:20:06.749Z,95103.09
2024-01-15T22:22:35.438Z,95076.94
2024-01-15T22:25:03.183Z,95104.59
2024-01-15T22:27:30.745Z,95075.09
2024-01-15T22:29:58.219Z,95092.69
2024-01-15T22:32:28.436Z,95089.88
2024-01-15T22:34:57.949Z,95076.00
2024-01-15T22:37:25.462Z,95079.69
2024-01-15T22:39:52.970Z,95074.34
2024-01-15T22:42:20.474Z,95085.25
2024-01-15T22:44:48.298Z,95091.78
2024-01-15T22:47:16.040Z,95080.22
2024-01-15T22:49:44.209Z,95075.16
2024-01-15T22:52:11.705Z,95073.22
2024-01-15T22:54:39.206Z,95080.84
2024-01-15T22:57:06.738Z,95080.84
2024-01-15T22:59:34.300Z,95092.09
2024-01-15T23:02:02.002Z,95087.34
2024-01-15T23:04:29.631Z,95090.59
2024-01-15T23:06:57.213Z,95092.47
2024-01-15T23:09:25.813Z,95091.53
2024-01-15T23:11:53.359Z,95094.25
2024-01-15T23:14:21.318Z,95085.66
2024-01-15T23:16:48.927Z,95098.38
2024-01-15T23:19:16.689Z,95100.75
2024-01-15T23:21:44.658Z,95103.75
2024-01-15T23:24:12.153Z,95113.44
2024-01-15T23:26:40.249Z,95107.91
2024-01-15T23:29:07.777Z,95109.50
2024-01-15T23:31:35.303Z,95097.75
2024-01-15T23:34:02.879Z,95116.00
2024-01-15T23:36:30.459Z,95110.69
2024-01-15T23:38:58.024Z,95132.75
2024-01-15T23:41:25.584Z,95140.09
2024-01-15T23:43:53.143Z,95130.75
2024-01-15T23:46:21.049Z,95146.78
2024-01-15T23:48:48.822Z,95154.88
2024-01-15T23:51:16.553Z,95147.88
2024-01-15T23:53:44.279Z,95146.00
2024-01-15T23:56:14.145Z,95165.13
2024-01-15T23:58:41.857Z,95157.34
